Terminal Aerodrome Forecast
Issued by NWS Sioux Falls, SD

Home | Current Version | Previous Version | Text Only | Print | Product List | Glossary On
Versions: 1 2 3 4 5 6 7 8 9 10 11 12 13 14 15 16
000
FTUS43 KFSD 221124
TAFSUX
TAF
KSUX 221124Z 2212/2312 14011KT P6SM SCT200 WS013/17035KT
     FM221300 14012KT P6SM SCT070 BKN200
     FM221600 16016G24KT P6SM BKN070
     FM230100 16014KT P6SM BKN040
     FM231000 16013KT P6SM SHRA VCTS OVC030CB=

USA.gov is the U.S. government's official web portal to all federal, state and local government web resources and services.